createdAt,value
2024-02-16T00:00:17.917Z,66596.78
2024-02-16T00:01:14.758Z,66617.38
2024-02-16T00:02:11.412Z,66615.56
2024-02-16T00:03:08.068Z,66622.38
2024-02-16T00:04:04.753Z,66622.75
2024-02-16T00:05:01.576Z,66611.44
2024-02-16T00:05:58.352Z,66606.19
2024-02-16T00:06:55.261Z,66613.91
2024-02-16T00:07:51.979Z,66614.63
2024-02-16T00:08:48.618Z,66624.41
2024-02-16T00:09:45.218Z,66623.06
2024-02-16T00:10:41.874Z,66620.69
2024-02-16T00:11:38.851Z,66608.00
2024-02-16T00:12:36.219Z,66563.25
2024-02-16T00:13:33.435Z,66539.91
2024-02-16T00:14:30.136Z,66564.91
2024-02-16T00:15:26.791Z,66564.34
2024-02-16T00:16:23.569Z,66576.38
2024-02-16T00:17:20.237Z,66583.28
2024-02-16T00:18:17.010Z,66601.34
2024-02-16T00:19:13.801Z,66600.41
2024-02-16T00:20:13.673Z,66595.44
2024-02-16T00:21:10.616Z,66590.44
2024-02-16T00:22:10.386Z,66548.91
2024-02-16T00:23:07.991Z,66552.75
2024-02-16T00:24:05.007Z,66571.13
2024-02-16T00:25:02.083Z,66576.66
2024-02-16T00:25:58.772Z,66564.75
2024-02-16T00:26:55.518Z,66572.78
2024-02-16T00:27:54.328Z,66574.84
2024-02-16T00:28:51.032Z,66569.88
2024-02-16T00:29:47.732Z,66581.47
2024-02-16T00:30:44.330Z,66567.25
2024-02-16T00:31:40.991Z,66541.00
2024-02-16T00:32:38.162Z,66527.75
2024-02-16T00:33:35.194Z,66528.31
2024-02-16T00:34:32.071Z,66520.72
2024-02-16T00:35:28.739Z,66523.63
2024-02-16T00:36:27.537Z,66537.16
2024-02-16T00:37:25.749Z,66524.44
2024-02-16T00:38:23.711Z,66506.38
2024-02-16T00:39:20.727Z,66502.69
2024-02-16T00:40:17.465Z,66519.47
2024-02-16T00:41:24.017Z,66550.53
2024-02-16T00:42:20.819Z,66553.31
2024-02-16T00:43:18.898Z,66563.25
2024-02-16T00:44:15.491Z,66563.09
2024-02-16T00:45:12.172Z,66563.41
2024-02-16T00:46:08.806Z,66576.66
2024-02-16T00:47:10.884Z,66570.44
2024-02-16T00:48:08.823Z,66576.50
2024-02-16T00:49:05.679Z,66590.31
2024-02-16T00:50:03.420Z,66601.34
2024-02-16T00:51:00.615Z,66603.97
2024-02-16T00:51:59.593Z,66600.13
2024-02-16T00:52:56.505Z,66592.94
2024-02-16T00:53:54.013Z,66593.06
2024-02-16T00:54:50.769Z,66613.91
2024-02-16T00:55:48.235Z,66600.81
2024-02-16T00:56:44.940Z,66622.75
2024-02-16T00:57:41.610Z,66617.50
2024-02-16T00:58:40.807Z,66632.16
2024-02-16T00:59:37.426Z,66623.88
2024-02-16T01:00:34.287Z,66618.47
2024-02-16T01:01:31.161Z,66609.66
2024-02-16T01:02:30.142Z,66610.22
2024-02-16T01:03:27.451Z,66610.22
2024-02-16T01:04:24.481Z,66613.91
2024-02-16T01:05:21.215Z,66620.69
2024-02-16T01:06:17.900Z,66601.91
2024-02-16T01:07:14.583Z,66616.13
2024-02-16T01:08:11.445Z,66610.75
2024-02-16T01:09:08.168Z,66603.41
2024-02-16T01:10:05.226Z,66590.16
2024-02-16T01:11:02.033Z,66584.38
2024-02-16T01:11:58.698Z,66597.34
2024-02-16T01:12:57.167Z,66589.38
2024-02-16T01:13:53.809Z,66598.44
2024-02-16T01:14:50.457Z,66593.06
2024-02-16T01:15:47.136Z,66588.66
2024-02-16T01:16:44.175Z,66563.66
2024-02-16T01:17:41.073Z,66552.91
2024-02-16T01:18:38.766Z,66580.78
2024-02-16T01:19:35.662Z,66594.03
2024-02-16T01:20:32.747Z,66579.66
2024-02-16T01:21:29.506Z,66570.81
2024-02-16T01:22:26.542Z,66559.00
2024-02-16T01:23:23.260Z,66567.53
2024-02-16T01:24:22.363Z,66547.78
2024-02-16T01:25:19.470Z,66519.63
2024-02-16T01:26:16.364Z,66513.97
2024-02-16T01:27:13.153Z,66525.69
2024-02-16T01:28:09.790Z,66519.06
2024-02-16T01:29:06.783Z,66516.88
2024-02-16T01:30:04.926Z,66515.78
2024-02-16T01:31:01.728Z,66508.44
2024-02-16T01:31:58.821Z,66508.44
2024-02-16T01:32:56.212Z,66537.16
2024-02-16T01:33:53.785Z,66532.19
2024-02-16T01:34:51.253Z,66528.84
2024-02-16T01:35:47.901Z,66517.28
2024-02-16T01:36:44.608Z,66512.31
2024-02-16T01:37:41.941Z,66494.66
2024-02-16T01:38:38.525Z,66509.13
2024-02-16T01:39:35.153Z,66513.16
2024-02-16T01:40:31.739Z,66508.59
2024-02-16T01:41:28.313Z,66527.34
2024-02-16T01:42:24.939Z,66519.06
2024-02-16T01:43:22.396Z,66509.84
2024-02-16T01:44:19.068Z,66506.78
2024-02-16T01:45:17.513Z,66520.03
2024-02-16T01:46:14.327Z,66515.59
2024-02-16T01:47:11.121Z,66498.25
2024-02-16T01:48:08.694Z,66511.91
2024-02-16T01:49:05.631Z,66510.81
2024-02-16T01:50:03.617Z,66520.34
2024-02-16T01:51:05.163Z,66517.81
2024-02-16T01:52:02.176Z,66538.81
2024-02-16T01:52:58.925Z,66545.44
2024-02-16T01:53:56.871Z,66526.66
2024-02-16T01:54:53.694Z,66509.84
2024-02-16T01:55:51.094Z,66503.63
2024-02-16T01:56:48.243Z,66485.25
2024-02-16T01:57:46.949Z,66481.94
2024-02-16T01:58:43.713Z,66471.06
2024-02-16T01:59:41.361Z,66481.41
2024-02-16T02:00:38.162Z,66472.03
2024-02-16T02:01:34.943Z,66468.88
2024-02-16T02:02:31.701Z,66470.38
2024-02-16T02:03:28.449Z,66470.38
2024-02-16T02:04:25.458Z,66469.81
2024-02-16T02:05:22.251Z,66438.66
2024-02-16T02:06:19.301Z,66449.53
2024-02-16T02:07:17.084Z,66454.50
2024-02-16T02:08:14.862Z,66431.19
2024-02-16T02:09:11.520Z,66420.31
2024-02-16T02:10:08.581Z,66417.94
2024-02-16T02:11:06.770Z,66404.88
2024-02-16T02:12:03.556Z,66412.44
2024-02-16T02:13:00.292Z,66408.03
2024-02-16T02:13:56.913Z,66421.25
2024-02-16T02:14:53.575Z,66438.53
2024-02-16T02:15:50.402Z,66444.72
2024-02-16T02:16:51.851Z,66435.06
2024-02-16T02:17:55.652Z,66451.75
2024-02-16T02:18:52.505Z,66470.91
2024-02-16T02:19:49.978Z,66458.91
2024-02-16T02:20:46.847Z,66502.69
2024-02-16T02:21:43.487Z,66464.28
2024-02-16T02:22:40.145Z,66461.13
2024-02-16T02:23:36.809Z,66463.75
2024-02-16T02:24:33.723Z,66446.78
2024-02-16T02:25:30.937Z,66437.25
2024-02-16T02:26:27.562Z,66459.63
2024-02-16T02:27:24.194Z,66443.31
2024-02-16T02:28:21.059Z,66442.38
2024-02-16T02:29:17.693Z,66433.16
2024-02-16T02:30:14.470Z,66443.88
2024-02-16T02:31:11.152Z,66450.66
2024-02-16T02:32:08.626Z,66450.78
2024-02-16T02:33:06.112Z,66457.41
2024-02-16T02:34:03.146Z,66473.53
2024-02-16T02:35:00.113Z,66458.53
2024-02-16T02:35:56.814Z,66473.28
2024-02-16T02:36:53.544Z,66460.03
2024-02-16T02:37:50.148Z,66439.75
2024-02-16T02:38:46.885Z,66451.03
2024-02-16T02:39:45.223Z,66449.69
2024-02-16T02:40:41.991Z,66451.59
2024-02-16T02:41:38.644Z,66455.47
2024-02-16T02:42:36.043Z,66454.34
2024-02-16T02:43:32.649Z,66475.31
2024-02-16T02:44:30.502Z,66470.50
2024-02-16T02:45:27.193Z,66486.22
2024-02-16T02:46:25.253Z,66486.34
2024-02-16T02:47:22.032Z,66444.44
2024-02-16T02:48:19.437Z,66440.16
2024-02-16T02:49:16.269Z,66465.78
2024-02-16T02:50:13.200Z,66433.53
2024-02-16T02:51:10.736Z,66437.56
2024-02-16T02:52:07.836Z,66457.66
2024-02-16T02:53:04.785Z,66459.88
2024-02-16T02:54:01.448Z,66452.16
2024-02-16T02:54:58.028Z,66448.44
2024-02-16T02:55:54.785Z,66456.00
2024-02-16T02:56:51.459Z,66433.41
2024-02-16T02:57:48.132Z,66435.34
2024-02-16T02:58:44.965Z,66445.13
2024-02-16T02:59:41.591Z,66439.94
2024-02-16T03:00:38.254Z,66440.56
2024-02-16T03:01:36.881Z,66444.97
2024-02-16T03:02:33.605Z,66456.00
2024-02-16T03:03:30.806Z,66451.22
2024-02-16T03:04:27.565Z,66447.19
2024-02-16T03:05:24.197Z,66428.44
2024-02-16T03:06:21.238Z,66409.13
2024-02-16T03:07:18.066Z,66400.59
2024-02-16T03:08:14.880Z,66406.38
2024-02-16T03:09:13.824Z,66422.22
2024-02-16T03:10:12.189Z,66430.94
2024-02-16T03:11:08.906Z,66465.41
2024-02-16T03:12:05.879Z,66429.69
2024-02-16T03:13:04.019Z,66406.91
2024-02-16T03:14:00.633Z,66431.91
2024-02-16T03:14:57.357Z,66431.19
2024-02-16T03:15:54.322Z,66437.25
2024-02-16T03:16:50.996Z,66425.13
2024-02-16T03:17:47.795Z,66446.94
2024-02-16T03:18:45.461Z,66424.00
2024-02-16T03:19:42.297Z,66410.38
2024-02-16T03:20:38.924Z,66436.84
2024-02-16T03:21:35.876Z,66457.13
2024-02-16T03:22:32.497Z,66461.69
2024-02-16T03:23:29.193Z,66433.41
2024-02-16T03:24:25.888Z,66462.25
2024-02-16T03:25:22.601Z,66434.66
2024-02-16T03:26:21.368Z,66390.53
2024-02-16T03:27:18.121Z,66397.13
2024-02-16T03:28:15.022Z,66416.84
2024-02-16T03:29:11.653Z,66433.41
2024-02-16T03:30:09.350Z,66421.25
2024-02-16T03:31:06.030Z,66435.19
2024-02-16T03:32:02.881Z,66451.03
2024-02-16T03:32:59.756Z,66439.47
2024-02-16T03:33:57.219Z,66412.03
2024-02-16T03:34:54.200Z,66416.69
2024-02-16T03:35:51.053Z,66429.00
2024-02-16T03:36:47.682Z,66427.31
2024-02-16T03:37:44.293Z,66445.53
2024-02-16T03:38:45.016Z,66451.59
2024-02-16T03:39:42.151Z,66449.00
2024-02-16T03:40:38.804Z,66443.47
2024-02-16T03:41:35.793Z,66456.16
2024-02-16T03:42:32.956Z,66471.06
2024-02-16T03:43:29.741Z,66456.72
2024-02-16T03:44:26.458Z,66451.22
2024-02-16T03:45:24.519Z,66451.59
2024-02-16T03:46:21.429Z,66480.28
2024-02-16T03:47:18.047Z,66496.31
2024-02-16T03:48:14.693Z,66486.91
2024-02-16T03:49:12.005Z,66478.09
2024-02-16T03:50:09.331Z,66466.47
2024-02-16T03:51:06.026Z,66469.66
2024-02-16T03:52:02.984Z,66480.84
2024-02-16T03:53:00.682Z,66490.94
2024-02-16T03:53:57.460Z,66512.47
2024-02-16T03:54:54.092Z,66513.72
2024-02-16T03:55:51.489Z,66485.81
2024-02-16T03:56:49.055Z,66481.41
2024-02-16T03:57:45.751Z,66492.97
2024-02-16T03:58:42.557Z,66481.13
2024-02-16T03:59:39.156Z,66501.28
2024-02-16T04:00:36.035Z,66505.44
2024-02-16T04:01:32.796Z,66518.94
2024-02-16T04:02:29.491Z,66529.97
2024-02-16T04:03:26.150Z,66549.28
2024-02-16T04:04:22.872Z,66571.53
2024-02-16T04:05:19.500Z,66553.88
2024-02-16T04:06:16.231Z,66544.63
2024-02-16T04:07:13.443Z,66554.25
2024-02-16T04:08:10.082Z,66569.47
2024-02-16T04:09:07.427Z,66565.47
2024-02-16T04:10:04.414Z,66548.19
2024-02-16T04:11:01.092Z,66570.97
2024-02-16T04:11:57.906Z,66557.16
2024-02-16T04:12:54.589Z,66570.44
2024-02-16T04:13:51.167Z,66542.28
2024-02-16T04:14:47.788Z,66537.28
2024-02-16T04:15:44.522Z,66539.50
2024-02-16T04:16:44.913Z,66557.03
2024-02-16T04:17:41.593Z,66532.31
2024-02-16T04:18:38.356Z,66528.47
2024-02-16T04:19:35.157Z,66537.84
2024-02-16T04:20:31.920Z,66550.41
2024-02-16T04:21:28.671Z,66533.28
2024-02-16T04:22:25.402Z,66514.66
2024-02-16T04:23:22.233Z,66504.31
2024-02-16T04:24:19.306Z,66490.75
2024-02-16T04:25:16.011Z,66496.31
2024-02-16T04:26:13.262Z,66496.59
2024-02-16T04:27:09.945Z,66505.69
2024-02-16T04:28:06.706Z,66501.81
2024-02-16T04:29:05.697Z,66532.19
2024-02-16T04:30:05.954Z,66527.75
2024-02-16T04:31:03.067Z,66539.38
2024-02-16T04:31:59.768Z,66508.75
2024-02-16T04:32:56.512Z,66497.38
2024-02-16T04:33:54.638Z,66497.94
2024-02-16T04:34:53.986Z,66456.88
2024-02-16T04:35:51.926Z,66460.41
2024-02-16T04:36:48.817Z,66472.16
2024-02-16T04:37:45.527Z,66509.13
2024-02-16T04:38:42.330Z,66511.34
2024-02-16T04:39:39.023Z,66484.31
2024-02-16T04:40:38.177Z,66499.59
2024-02-16T04:41:34.811Z,66466.66
2024-02-16T04:42:31.712Z,66467.75
2024-02-16T04:43:28.380Z,66472.56
2024-02-16T04:44:25.434Z,66469.81
2024-02-16T04:45:22.189Z,66459.34
2024-02-16T04:46:18.944Z,66453.25
2024-02-16T04:47:15.622Z,66442.22
2024-02-16T04:48:13.464Z,66433.41
2024-02-16T04:49:10.198Z,66440.56
2024-02-16T04:50:10.945Z,66416.31
2024-02-16T04:51:07.786Z,66412.97
2024-02-16T04:52:05.081Z,66434.50
2024-02-16T04:53:05.341Z,66482.50
2024-02-16T04:54:02.101Z,66484.69
2024-02-16T04:54:58.739Z,66509.53
2024-02-16T04:55:55.391Z,66497.38
2024-02-16T04:56:52.283Z,66490.22
2024-02-16T04:57:48.958Z,66440.03
2024-02-16T04:58:45.636Z,66420.16
2024-02-16T04:59:42.459Z,66399.75
2024-02-16T05:00:39.942Z,66419.59
2024-02-16T05:01:36.761Z,66418.91
2024-02-16T05:02:33.574Z,66414.09
2024-02-16T05:03:30.323Z,66419.06
2024-02-16T05:04:27.093Z,66406.91
2024-02-16T05:05:23.771Z,66368.16
2024-02-16T05:06:20.442Z,66331.38
2024-02-16T05:07:17.261Z,66349.03
2024-02-16T05:08:13.894Z,66324.63
2024-02-16T05:09:10.625Z,66316.50
2024-02-16T05:10:10.098Z,66311.00
2024-02-16T05:11:08.830Z,66319.66
2024-02-16T05:12:05.918Z,66348.47
2024-02-16T05:13:02.617Z,66359.34
2024-02-16T05:13:59.333Z,66336.91
2024-02-16T05:14:56.476Z,66296.13
2024-02-16T05:15:55.910Z,66275.19
2024-02-16T05:16:53.367Z,66284.16
2024-02-16T05:17:50.940Z,66275.34
2024-02-16T05:18:47.750Z,66269.81
2024-02-16T05:19:44.443Z,66253.69
2024-02-16T05:20:41.915Z,66254.56
2024-02-16T05:21:38.644Z,66258.09
2024-02-16T05:22:35.460Z,66254.81
2024-02-16T05:23:32.430Z,66258.09
2024-02-16T05:24:29.262Z,66278.72
2024-02-16T05:25:26.125Z,66293.75
2024-02-16T05:26:22.699Z,66316.34
2024-02-16T05:27:19.458Z,66293.94
2024-02-16T05:28:16.235Z,66294.47
2024-02-16T05:29:12.888Z,66294.88
2024-02-16T05:30:15.786Z,66298.88
2024-02-16T05:31:18.462Z,66292.09
2024-02-16T05:32:15.302Z,66299.44
2024-02-16T05:33:12.438Z,66300.22
2024-02-16T05:34:09.278Z,66244.34
2024-02-16T05:35:14.471Z,66267.88
2024-02-16T05:36:11.273Z,66271.88
2024-02-16T05:37:08.067Z,66268.59
2024-02-16T05:38:11.951Z,66288.41
2024-02-16T05:39:21.822Z,66308.22
2024-02-16T05:40:28.181Z,66292.41
2024-02-16T05:41:25.334Z,66290.06
2024-02-16T05:42:25.296Z,66284.00
2024-02-16T05:43:21.942Z,66285.97
2024-02-16T05:44:18.620Z,66280.28
2024-02-16T05:45:16.088Z,66298.31
2024-02-16T05:46:17.339Z,66304.78
2024-02-16T05:47:14.079Z,66284.00
2024-02-16T05:48:11.882Z,66269.53
2024-02-16T05:49:08.858Z,66272.81
2024-02-16T05:50:08.026Z,66282.88
2024-02-16T05:51:06.659Z,66271.88
2024-02-16T05:52:19.061Z,66271.88
2024-02-16T05:53:15.841Z,66291.31
2024-02-16T05:54:13.587Z,66290.06
2024-02-16T05:55:11.842Z,66306.75
2024-02-16T05:56:08.792Z,66310.44
2024-02-16T05:57:05.544Z,66322.19
2024-02-16T05:58:02.198Z,66327.53
2024-02-16T05:58:58.801Z,66313.75
2024-02-16T05:59:57.052Z,66307.69
2024-02-16T06:00:55.922Z,66326.97
2024-02-16T06:01:52.735Z,66318.00
2024-02-16T06:02:49.529Z,66301.06
2024-02-16T06:03:46.271Z,66279.59
2024-02-16T06:04:43.026Z,66286.75
2024-02-16T06:05:40.189Z,66303.84
2024-02-16T06:06:40.208Z,66320.53
2024-02-16T06:07:39.613Z,66310.44
2024-02-16T06:08:36.466Z,66331.78
2024-02-16T06:09:36.709Z,66361.16
2024-02-16T06:10:33.816Z,66379.91
2024-02-16T06:11:30.574Z,66385.41
2024-02-16T06:12:27.288Z,66384.31
2024-02-16T06:13:24.484Z,66399.03
2024-02-16T06:14:24.124Z,66390.94
2024-02-16T06:15:20.884Z,66381.16
2024-02-16T06:16:17.813Z,66397.00
2024-02-16T06:17:15.836Z,66402.50
2024-02-16T06:18:12.715Z,66462.06
2024-02-16T06:19:10.108Z,66510.63
2024-02-16T06:20:10.660Z,66561.59
2024-02-16T06:21:07.406Z,66594.19
2024-02-16T06:22:04.495Z,66628.03
2024-02-16T06:23:01.089Z,66634.53
2024-02-16T06:23:57.745Z,66641.84
2024-02-16T06:24:54.546Z,66662.84
2024-02-16T06:25:51.169Z,66624.00
2024-02-16T06:26:47.969Z,66660.47
2024-02-16T06:27:44.948Z,66680.53
2024-02-16T06:28:41.717Z,66699.19
2024-02-16T06:29:38.503Z,66688.69
2024-02-16T06:30:35.216Z,66728.91
2024-02-16T06:31:31.868Z,66742.88
2024-02-16T06:32:30.000Z,66727.41
2024-02-16T06:33:26.821Z,66687.03
2024-02-16T06:34:23.974Z,66663.25
2024-02-16T06:35:20.875Z,66652.75
2024-02-16T06:36:18.620Z,66606.47
2024-02-16T06:37:16.200Z,66607.59
2024-02-16T06:38:12.836Z,66620.53
2024-02-16T06:39:11.704Z,66597.63
2024-02-16T06:40:11.645Z,66598.06
2024-02-16T06:41:09.074Z,66564.75
2024-02-16T06:42:05.876Z,66580.38
2024-02-16T06:43:02.521Z,66605.94
2024-02-16T06:43:59.389Z,66613.38
2024-02-16T06:44:56.057Z,66617.78
2024-02-16T06:45:52.800Z,66593.63
2024-02-16T06:46:49.359Z,66619.44
2024-02-16T06:47:46.302Z,66570.03
2024-02-16T06:48:43.798Z,66607.59
2024-02-16T06:49:40.527Z,66622.50
2024-02-16T06:50:37.142Z,66620.69
2024-02-16T06:51:33.967Z,66596.94
2024-02-16T06:52:30.732Z,66533.97
2024-02-16T06:53:27.785Z,66558.13
2024-02-16T06:54:27.272Z,66556.88
2024-02-16T06:55:23.951Z,66587.41
2024-02-16T06:56:20.834Z,66593.78
2024-02-16T06:57:17.803Z,66594.72
2024-02-16T06:58:14.514Z,66607.44
2024-02-16T06:59:11.144Z,66635.06
2024-02-16T07:00:10.089Z,66604.69
2024-02-16T07:01:06.968Z,66597.34
2024-02-16T07:02:04.139Z,66592.13
2024-02-16T07:03:00.824Z,66605.38
2024-02-16T07:03:57.602Z,66621.66
2024-02-16T07:04:54.284Z,66613.66
2024-02-16T07:05:51.026Z,66639.34
2024-02-16T07:06:48.105Z,66671.94
2024-02-16T07:07:44.781Z,66610.75
2024-02-16T07:08:42.004Z,66574.44
2024-02-16T07:09:40.497Z,66597.63
2024-02-16T07:10:37.221Z,66636.16
2024-02-16T07:11:36.172Z,66627.72
2024-02-16T07:12:35.170Z,66665.88
2024-02-16T07:13:35.518Z,66616.97
2024-02-16T07:14:32.197Z,66656.06
2024-02-16T07:15:29.080Z,66649.44
2024-02-16T07:16:25.925Z,66651.66
2024-02-16T07:17:22.764Z,66613.91
2024-02-16T07:18:19.512Z,66621.94
2024-02-16T07:19:16.420Z,66676.38
2024-02-16T07:20:16.711Z,66688.13
2024-02-16T07:21:13.863Z,66708.59
2024-02-16T07:22:11.285Z,66668.22
2024-02-16T07:23:08.275Z,66694.91
2024-02-16T07:24:05.353Z,66706.22
2024-02-16T07:25:02.076Z,66725.88
2024-02-16T07:25:59.486Z,66750.63
2024-02-16T07:26:56.228Z,66721.44
2024-02-16T07:27:53.925Z,66740.13
2024-02-16T07:28:50.682Z,66737.75
2024-02-16T07:29:47.906Z,66732.50
2024-02-16T07:30:44.750Z,66704.00
2024-02-16T07:31:41.411Z,66735.69
2024-02-16T07:32:38.167Z,66755.19
2024-02-16T07:33:35.301Z,66787.81
2024-02-16T07:34:32.150Z,66790.59
2024-02-16T07:35:28.820Z,66802.47
2024-02-16T07:36:25.478Z,66776.19
2024-02-16T07:37:22.123Z,66734.72
2024-02-16T07:38:18.935Z,66777.31
2024-02-16T07:39:15.969Z,66785.06
2024-02-16T07:40:12.777Z,66791.56
2024-02-16T07:41:09.859Z,66774.56
2024-02-16T07:42:06.859Z,66834.31
2024-02-16T07:43:04.395Z,66856.44
2024-02-16T07:44:01.075Z,66858.13
2024-02-16T07:44:57.693Z,66887.47
2024-02-16T07:45:57.728Z,66880.81
2024-02-16T07:46:54.398Z,66890.66
2024-02-16T07:47:51.928Z,66914.59
2024-02-16T07:48:48.977Z,66912.38
2024-02-16T07:49:46.288Z,66908.66
2024-02-16T07:50:43.186Z,66926.09
2024-02-16T07:51:41.279Z,66940.50
2024-02-16T07:52:40.266Z,66965.16
2024-02-16T07:53:37.444Z,66991.34
2024-02-16T07:54:34.305Z,66970.00
2024-02-16T07:55:31.058Z,66964.59
2024-02-16T07:56:27.734Z,66949.50
2024-02-16T07:57:24.671Z,66933.44
2024-02-16T07:58:21.349Z,66952.84
2024-02-16T07:59:20.119Z,66981.66
2024-02-16T08:00:17.607Z,66997.16
2024-02-16T08:01:17.122Z,66983.16
2024-02-16T08:02:16.868Z,66971.69
2024-02-16T08:03:13.636Z,66982.22
2024-02-16T08:04:10.301Z,66944.53
2024-02-16T08:05:10.102Z,66917.38
2024-02-16T08:06:07.197Z,66894.09
2024-02-16T08:07:04.212Z,66862.81
2024-02-16T08:08:00.949Z,66909.06
2024-02-16T08:08:57.576Z,66934.97
2024-02-16T08:09:54.228Z,66940.09
2024-02-16T08:10:52.069Z,66924.56
2024-02-16T08:11:48.777Z,66973.19
2024-02-16T08:12:45.439Z,66992.59
2024-02-16T08:13:42.074Z,67008.38
2024-02-16T08:14:42.507Z,67029.31
2024-02-16T08:15:39.186Z,67059.81
2024-02-16T08:16:35.841Z,67055.22
2024-02-16T08:17:32.601Z,67059.81
2024-02-16T08:18:29.355Z,67072.00
2024-02-16T08:19:33.899Z,67069.81
2024-02-16T08:20:30.562Z,67039.16
2024-02-16T08:21:27.376Z,67048.72
2024-02-16T08:22:24.247Z,67008.81
2024-02-16T08:23:21.704Z,67052.47
2024-02-16T08:24:18.348Z,67066.63
2024-02-16T08:25:15.031Z,67084.38
2024-02-16T08:26:11.709Z,67087.03
2024-02-16T08:27:08.435Z,67121.28
2024-02-16T08:28:06.216Z,67101.97
2024-02-16T08:29:02.863Z,67107.56
2024-02-16T08:29:59.804Z,67133.88
2024-02-16T08:30:56.573Z,67120.28
2024-02-16T08:31:53.707Z,67135.28
2024-02-16T08:32:50.512Z,67131.81
2024-02-16T08:33:48.538Z,67123.22
2024-02-16T08:34:45.699Z,67150.28
2024-02-16T08:35:42.547Z,67171.22
2024-02-16T08:36:41.505Z,67139.16
2024-02-16T08:37:38.168Z,67137.50
2024-02-16T08:38:34.917Z,67161.94
2024-02-16T08:39:32.048Z,67178.72
2024-02-16T08:40:29.742Z,67195.22
2024-02-16T08:41:26.483Z,67204.66
2024-02-16T08:42:24.225Z,67208.00
2024-02-16T08:43:20.915Z,67201.59
2024-02-16T08:44:17.660Z,67218.97
2024-02-16T08:45:14.569Z,67233.13
2024-02-16T08:46:11.394Z,67194.09
2024-02-16T08:47:08.710Z,67175.25
2024-02-16T08:48:05.915Z,67205.78
2024-02-16T08:49:03.379Z,67192.47
2024-02-16T08:50:00.011Z,67172.63
2024-02-16T08:50:56.694Z,67172.47
2024-02-16T08:51:53.429Z,67219.09
2024-02-16T08:52:50.085Z,67229.09
2024-02-16T08:53:46.833Z,67257.00
2024-02-16T08:54:46.641Z,67277.97
2024-02-16T08:55:43.504Z,67292.28
2024-02-16T08:56:40.577Z,67288.25
2024-02-16T08:57:37.275Z,67289.78
2024-02-16T08:58:34.005Z,67254.09
2024-02-16T08:59:31.663Z,67278.66
2024-02-16T09:00:29.437Z,67293.13
2024-02-16T09:01:36.475Z,67252.03
2024-02-16T09:02:33.167Z,67259.78
2024-02-16T09:03:29.879Z,67273.00
2024-02-16T09:04:26.791Z,67284.78
2024-02-16T09:05:24.410Z,67306.31
2024-02-16T09:06:21.134Z,67304.66
2024-02-16T09:07:17.990Z,67300.75
2024-02-16T09:08:14.688Z,67328.56
2024-02-16T09:09:12.322Z,67356.91
2024-02-16T09:10:09.658Z,67334.66
2024-02-16T09:11:06.841Z,67294.66
2024-02-16T09:12:03.649Z,67288.69
2024-02-16T09:13:00.333Z,67327.44
2024-02-16T09:13:57.158Z,67340.09
2024-02-16T09:14:53.870Z,67319.09
2024-02-16T09:15:52.643Z,67264.09
2024-02-16T09:16:55.192Z,67205.78
2024-02-16T09:17:52.059Z,67228.00
2024-02-16T09:18:51.675Z,67228.69
2024-02-16T09:19:48.339Z,67295.34
2024-02-16T09:20:45.055Z,67311.88
2024-02-16T09:21:41.814Z,67285.06
2024-02-16T09:23:43.544Z,67179.69
2024-02-16T09:24:42.013Z,67233.28
2024-02-16T09:25:39.410Z,67249.09
2024-02-16T09:26:36.080Z,67253.53
2024-02-16T09:27:32.918Z,67279.78
2024-02-16T09:28:30.796Z,67295.22
2024-02-16T09:29:27.524Z,67303.13
2024-02-16T09:30:24.155Z,67316.59
2024-02-16T09:31:20.827Z,67341.91
2024-02-16T09:32:17.528Z,67354.28
2024-02-16T09:33:15.116Z,67339.66
2024-02-16T09:34:12.002Z,67339.38
2024-02-16T09:35:10.004Z,67368.19
2024-02-16T09:36:07.036Z,67361.34
2024-02-16T09:37:04.852Z,67308.69
2024-02-16T09:38:01.524Z,67293.69
2024-02-16T09:38:58.571Z,67289.78
2024-02-16T09:39:55.535Z,67293.53
2024-02-16T09:40:52.733Z,67294.09
2024-02-16T09:41:53.530Z,67329.13
2024-02-16T09:42:50.540Z,67340.22
2024-02-16T09:43:47.200Z,67365.38
2024-02-16T09:44:44.161Z,67339.81
2024-02-16T09:45:41.103Z,67392.09
2024-02-16T09:46:37.787Z,67389.84
2024-02-16T09:47:38.463Z,67350.22
2024-02-16T09:48:35.938Z,67355.81
2024-02-16T09:49:39.422Z,67351.91
2024-02-16T09:50:37.669Z,67384.16
2024-02-16T09:51:38.340Z,67377.63
2024-02-16T09:52:35.572Z,67351.91
2024-02-16T09:53:32.276Z,67352.47
2024-02-16T09:54:28.989Z,67363.72
2024-02-16T09:55:26.187Z,67369.41
2024-02-16T09:56:23.532Z,67368.84
2024-02-16T09:57:20.468Z,67390.97
2024-02-16T09:58:20.090Z,67395.00
2024-02-16T09:59:16.798Z,67416.69
2024-02-16T10:00:14.548Z,67389.31
2024-02-16T10:01:22.085Z,67399.16
2024-02-16T10:02:18.877Z,67388.63
2024-02-16T10:03:29.836Z,67406.56
2024-02-16T10:04:26.498Z,67362.19
2024-02-16T10:05:23.440Z,67355.81
2024-02-16T10:06:23.885Z,67357.47
2024-02-16T10:07:31.960Z,67352.06
2024-02-16T10:08:28.988Z,67346.91
2024-02-16T10:09:33.609Z,67378.63
2024-02-16T10:10:32.859Z,67382.75
2024-02-16T10:11:29.793Z,67369.84
2024-02-16T10:12:26.569Z,67390.84
2024-02-16T10:13:23.271Z,67425.19
2024-02-16T10:14:20.831Z,67361.09
2024-02-16T10:15:24.505Z,67319.66
2024-02-16T10:16:21.147Z,67308.53
2024-02-16T10:17:18.208Z,67313.53
2024-02-16T10:18:15.015Z,67303.66
2024-02-16T10:19:14.832Z,67301.47
2024-02-16T10:20:19.467Z,67347.03
2024-02-16T10:21:28.745Z,67396.97
2024-02-16T10:22:25.600Z,67369.72
2024-02-16T10:23:22.943Z,67355.81
2024-02-16T10:24:23.247Z,67392.09
2024-02-16T10:25:19.975Z,67342.16
2024-02-16T10:26:16.589Z,67398.91
2024-02-16T10:27:18.071Z,67436.16
2024-02-16T10:28:15.423Z,67445.34
2024-02-16T10:29:12.651Z,67455.22
2024-02-16T10:30:13.412Z,67473.59
2024-02-16T10:31:10.517Z,67462.19
2024-02-16T10:32:07.764Z,67438.66
2024-02-16T10:33:06.188Z,67427.53
2024-02-16T10:34:07.660Z,67474.81
2024-02-16T10:35:09.794Z,67438.66
2024-02-16T10:36:09.283Z,67453.25
2024-02-16T10:37:07.323Z,67484.44
2024-02-16T10:38:11.141Z,67439.22
2024-02-16T10:39:09.922Z,67403.63
2024-02-16T10:40:13.193Z,67432.13
2024-02-16T10:41:10.866Z,67401.41
2024-02-16T10:42:08.129Z,67406.97
2024-02-16T10:43:09.313Z,67404.31
2024-02-16T10:44:07.214Z,67439.34
2024-02-16T10:45:05.503Z,67407.09
2024-02-16T10:46:03.050Z,67408.19
2024-02-16T10:47:00.321Z,67439.34
2024-02-16T10:47:57.035Z,67409.88
2024-02-16T10:48:54.105Z,67340.22
2024-02-16T10:49:51.115Z,67346.34
2024-02-16T10:50:52.068Z,67349.41
2024-02-16T10:51:54.486Z,67352.75
2024-02-16T10:52:52.205Z,67405.28
2024-02-16T10:53:52.522Z,67365.81
2024-02-16T10:54:49.584Z,67358.03
2024-02-16T10:55:47.049Z,67364.84
2024-02-16T10:56:43.722Z,67382.50
2024-02-16T10:57:41.177Z,67399.44
2024-02-16T10:58:38.352Z,67403.75
2024-02-16T10:59:45.535Z,67369.28
2024-02-16T11:00:55.289Z,67378.31
2024-02-16T11:02:01.441Z,67432.69
2024-02-16T11:03:00.915Z,67420.44
2024-02-16T11:04:09.788Z,67348.16
2024-02-16T11:05:10.201Z,67383.63
2024-02-16T11:06:19.883Z,67451.47
2024-02-16T11:07:18.030Z,67459.38
2024-02-16T11:08:17.144Z,67433.66
2024-02-16T11:09:31.052Z,67382.63
2024-02-16T11:10:27.857Z,67372.50
2024-02-16T11:11:25.472Z,67399.44
2024-02-16T11:12:22.951Z,67469.28
2024-02-16T11:13:24.536Z,67487.34
2024-02-16T11:14:23.508Z,67542.06
2024-02-16T11:15:35.483Z,67389.72
2024-02-16T11:16:32.276Z,67439.78
2024-02-16T11:17:29.974Z,67454.53
2024-02-16T11:18:27.506Z,67422.66